createdAt,value
2019-03-09T00:04:35.587Z,7.17
2019-03-09T00:14:44.925Z,5.93
2019-03-09T00:19:49.386Z,6.93
2019-03-09T00:24:59.889Z,7.43
2019-03-09T00:30:27.428Z,6.80
2019-03-09T00:35:31.761Z,8.53
2019-03-09T00:40:41.145Z,8.70
2019-03-09T00:46:14.135Z,4.13
2019-03-09T00:51:19.415Z,7.57
2019-03-09T00:56:25.653Z,5.63
2019-03-09T01:01:30.045Z,11.53
2019-03-09T01:06:35.053Z,5.30
2019-03-09T01:11:40.392Z,7.50
2019-03-09T01:16:46.298Z,7.30
2019-03-09T01:21:50.816Z,7.63
2019-03-09T01:26:57.789Z,8.37
2019-03-09T01:32:06.842Z,6.97
2019-03-09T01:37:14.553Z,11.33
2019-03-09T01:42:24.606Z,7.77
2019-03-09T01:47:29.560Z,13.67
2019-03-09T01:52:33.865Z,11.93
2019-03-09T01:57:38.939Z,6.87
2019-03-09T02:02:44.474Z,5.60
2019-03-09T02:07:49.241Z,9.50
2019-03-09T02:12:53.447Z,5.60
2019-03-09T02:17:58.547Z,16.40
2019-03-09T02:23:07.324Z,6.13
2019-03-09T02:28:12.161Z,9.47
2019-03-09T02:33:17.861Z,10.83
2019-03-09T02:38:40.106Z,7.27
2019-03-09T02:43:44.620Z,6.30
2019-03-09T02:48:51.203Z,6.27
2019-03-09T02:53:56.117Z,6.60
2019-03-09T02:59:00.506Z,5.50
2019-03-09T03:04:05.466Z,4.90
2019-03-09T03:09:10.641Z,6.87
2019-03-09T03:14:16.838Z,6.70
2019-03-09T03:19:21.321Z,6.13
2019-03-09T03:24:26.034Z,7.00
2019-03-09T03:29:30.405Z,9.73
2019-03-09T03:34:35.329Z,10.47
2019-03-09T03:39:40.336Z,7.37
2019-03-09T03:44:48.671Z,9.23
2019-03-09T03:49:53.630Z,8.37
2019-03-09T03:54:59.911Z,10.67
2019-03-09T04:00:06.437Z,7.50
2019-03-09T04:05:11.534Z,8.33
2019-03-09T04:10:16.455Z,6.03
2019-03-09T04:15:21.856Z,5.27
2019-03-09T04:20:26.685Z,5.57
2019-03-09T04:25:31.555Z,3.67
2019-03-09T04:30:36.523Z,3.37
2019-03-09T04:35:41.498Z,4.57
2019-03-09T04:40:47.008Z,3.30
2019-03-09T04:45:51.990Z,4.47
2019-03-09T04:50:57.136Z,4.10
2019-03-09T04:56:02.089Z,2.77
2019-03-09T05:01:07.035Z,2.60
2019-03-09T05:06:15.129Z,2.97
2019-03-09T05:11:27.546Z,3.80
2019-03-09T05:16:32.412Z,3.87
2019-03-09T05:21:37.256Z,4.57
2019-03-09T05:26:42.332Z,4.80
2019-03-09T05:31:47.835Z,4.60
2019-03-09T05:36:52.710Z,4.50
2019-03-09T05:41:58.764Z,6.50
2019-03-09T05:47:05.886Z,5.13
2019-03-09T05:52:29.647Z,7.17
2019-03-09T05:57:34.666Z,7.53
2019-03-09T06:02:39.685Z,9.50
2019-03-09T06:07:46.017Z,6.90
2019-03-09T06:12:51.104Z,10.87
2019-03-09T06:17:56.042Z,6.47
2019-03-09T06:23:01.081Z,14.43
2019-03-09T06:28:07.476Z,11.20
2019-03-09T06:33:30.184Z,4.80
2019-03-09T06:38:58.293Z,13.43
2019-03-09T06:44:05.171Z,10.17
2019-03-09T06:49:18.289Z,10.30
2019-03-09T06:54:27.203Z,11.37
2019-03-09T06:59:32.338Z,11.87
2019-03-09T07:04:54.241Z,12.33
2019-03-09T07:09:58.927Z,12.43
2019-03-09T07:15:36.584Z,12.50
2019-03-09T07:20:56.001Z,15.33
2019-03-09T07:31:25.998Z,16.87
2019-03-09T07:36:37.149Z,14.83
2019-03-09T07:41:47.995Z,14.80
2019-03-09T07:46:53.859Z,13.93
2019-03-09T07:52:10.896Z,12.50
2019-03-09T07:57:19.002Z,16.23
2019-03-09T08:02:33.855Z,9.97
2019-03-09T08:07:43.106Z,10.70
2019-03-09T08:12:52.389Z,15.67
2019-03-09T08:17:56.753Z,14.10
2019-03-09T08:23:01.863Z,12.90
2019-03-09T08:28:06.327Z,10.70
2019-03-09T08:33:10.876Z,9.50
2019-03-09T08:38:15.788Z,9.33
2019-03-09T08:43:21.448Z,12.73
2019-03-09T08:48:26.888Z,10.67
2019-03-09T08:53:37.318Z,10.25
2019-03-09T08:58:42.482Z,7.60
2019-03-09T09:03:51.353Z,10.67
2019-03-09T09:08:56.418Z,9.13
2019-03-09T09:14:04.350Z,15.13
2019-03-09T09:19:09.426Z,12.90
2019-03-09T09:24:14.236Z,13.47
2019-03-09T09:29:21.900Z,12.53
2019-03-09T09:34:27.371Z,10.90
2019-03-09T09:39:34.299Z,12.57
2019-03-09T09:44:45.164Z,12.20
2019-03-09T09:49:49.601Z,8.37
2019-03-09T09:54:53.920Z,11.63
2019-03-09T09:59:58.809Z,7.87
2019-03-09T10:05:18.664Z,7.63
2019-03-09T10:10:26.653Z,8.30
2019-03-09T10:15:46.389Z,9.70
2019-03-09T10:21:03.859Z,5.47
2019-03-09T10:26:26.807Z,7.10
2019-03-09T10:31:44.262Z,6.70
2019-03-09T10:37:09.690Z,11.73
2019-03-09T10:42:28.553Z,9.73
2019-03-09T10:47:47.806Z,4.83
2019-03-09T10:53:11.409Z,14.83
2019-03-09T10:58:18.007Z,7.47
2019-03-09T11:03:22.831Z,13.30
2019-03-09T11:08:30.499Z,8.47
2019-03-09T11:13:36.218Z,11.07
2019-03-09T11:18:41.438Z,14.67
2019-03-09T11:23:47.482Z,22.00
2019-03-09T11:28:52.389Z,14.47
2019-03-09T11:33:57.185Z,9.17
2019-03-09T11:39:02.238Z,11.30
2019-03-09T11:44:07.338Z,10.27
2019-03-09T11:49:12.199Z,13.70
2019-03-09T11:54:17.972Z,9.60
2019-03-09T11:59:26.483Z,9.53
2019-03-09T12:04:30.781Z,11.10
2019-03-09T12:09:36.000Z,10.70
2019-03-09T12:14:40.818Z,8.00
2019-03-09T12:19:45.917Z,7.90
2019-03-09T12:24:53.920Z,5.27
2019-03-09T12:29:59.105Z,6.47
2019-03-09T12:35:03.721Z,6.40
2019-03-09T12:40:12.010Z,7.03
2019-03-09T12:45:17.911Z,7.37
2019-03-09T12:50:23.007Z,6.40
2019-03-09T12:55:27.853Z,8.30
2019-03-09T13:00:32.906Z,10.87
2019-03-09T13:05:37.735Z,11.90
2019-03-09T13:10:42.802Z,11.93
2019-03-09T13:15:47.693Z,10.60
2019-03-09T13:20:52.709Z,7.87
2019-03-09T13:26:22.983Z,16.03
2019-03-09T13:31:27.843Z,12.53
2019-03-09T13:36:32.501Z,12.50
2019-03-09T13:41:37.324Z,17.37
2019-03-09T13:46:43.226Z,17.43
2019-03-09T13:51:48.046Z,13.53
2019-03-09T13:56:52.650Z,17.83
2019-03-09T14:01:57.638Z,13.43
2019-03-09T14:07:02.182Z,14.00
2019-03-09T14:12:06.814Z,11.03
2019-03-09T14:17:11.483Z,17.77
2019-03-09T14:22:16.130Z,13.10
2019-03-09T14:27:20.834Z,18.33
2019-03-09T14:32:26.886Z,15.57
2019-03-09T14:37:31.973Z,17.67
2019-03-09T14:42:36.674Z,17.60
2019-03-09T14:47:41.299Z,15.20
2019-03-09T14:52:45.998Z,22.93
2019-03-09T14:57:50.667Z,23.70
2019-03-09T15:02:55.473Z,20.03
2019-03-09T15:08:00.119Z,21.03
2019-03-09T15:13:05.111Z,26.47
2019-03-09T15:18:09.694Z,20.30
2019-03-09T15:23:14.363Z,23.60
2019-03-09T15:28:19.082Z,14.37
2019-03-09T15:33:24.838Z,17.23
2019-03-09T15:38:29.462Z,21.33
2019-03-09T15:43:34.371Z,19.60
2019-03-09T15:48:39.104Z,12.13
2019-03-09T15:53:43.691Z,10.77
2019-03-09T15:58:48.579Z,8.30
2019-03-09T16:03:53.506Z,11.13
2019-03-09T16:08:58.606Z,8.03
2019-03-09T16:14:03.330Z,9.57
2019-03-09T16:19:08.038Z,7.90
2019-03-09T16:24:12.730Z,4.10
2019-03-09T16:29:17.466Z,2.53
2019-03-09T16:34:22.442Z,4.10
2019-03-09T16:39:27.062Z,5.17
2019-03-09T16:44:31.807Z,6.20
2019-03-09T16:49:36.343Z,5.43
2019-03-09T16:54:41.069Z,9.80
2019-03-09T16:59:45.654Z,9.90
2019-03-09T17:04:50.279Z,6.90
2019-03-09T17:09:54.879Z,8.67
2019-03-09T17:14:59.521Z,6.20
2019-03-09T17:20:04.975Z,5.60
2019-03-09T17:25:09.728Z,5.70
2019-03-09T17:30:16.006Z,12.07
2019-03-09T17:35:20.635Z,7.67
2019-03-09T17:40:26.486Z,7.23
2019-03-09T17:45:31.134Z,7.30
2019-03-09T17:50:36.026Z,9.13
2019-03-09T17:55:40.668Z,8.77
2019-03-09T18:00:46.419Z,6.77
2019-03-09T18:05:51.386Z,11.37
2019-03-09T18:10:58.793Z,10.47
2019-03-09T18:16:03.660Z,9.97
2019-03-09T18:21:08.353Z,12.20
2019-03-09T18:26:13.035Z,5.80
2019-03-09T18:31:17.854Z,8.73
2019-03-09T18:36:22.769Z,8.13
2019-03-09T18:41:28.099Z,8.33
2019-03-09T18:46:32.731Z,8.10
2019-03-09T18:51:37.794Z,12.17
2019-03-09T18:56:42.503Z,13.03
2019-03-09T19:01:46.983Z,13.63
2019-03-09T19:06:52.267Z,11.67
2019-03-09T19:11:56.826Z,10.00
2019-03-09T19:17:01.671Z,11.23
2019-03-09T19:22:06.381Z,10.63
2019-03-09T19:27:11.491Z,7.87
2019-03-09T19:32:16.937Z,12.70
2019-03-09T19:37:23.677Z,6.80
2019-03-09T19:42:28.979Z,5.40
2019-03-09T19:47:33.764Z,10.67
2019-03-09T19:52:40.092Z,12.13
2019-03-09T19:57:44.922Z,8.80
2019-03-09T20:02:49.997Z,13.97
2019-03-09T20:07:55.212Z,20.37
2019-03-09T20:13:00.247Z,18.33
2019-03-09T20:18:05.274Z,16.37
2019-03-09T20:23:10.356Z,13.27
2019-03-09T20:28:16.536Z,13.63
2019-03-09T20:33:22.878Z,10.87
2019-03-09T20:38:29.325Z,10.93
2019-03-09T20:43:35.635Z,11.27
2019-03-09T20:48:42.118Z,15.03
2019-03-09T20:53:47.121Z,13.80
2019-03-09T20:58:52.154Z,8.10
2019-03-09T21:03:57.195Z,9.63
2019-03-09T21:09:02.328Z,7.17
2019-03-09T21:14:07.282Z,3.63
2019-03-09T21:19:13.040Z,8.63
2019-03-09T21:24:18.011Z,9.37
2019-03-09T21:29:23.351Z,7.23
2019-03-09T21:34:28.163Z,13.73
2019-03-09T21:39:33.767Z,7.90
2019-03-09T21:44:38.990Z,5.57
2019-03-09T21:49:43.921Z,9.10
2019-03-09T21:54:48.651Z,11.40
2019-03-09T21:59:53.232Z,6.37
2019-03-09T22:04:58.407Z,7.33
2019-03-09T22:10:03.373Z,7.03
2019-03-09T22:15:08.931Z,10.87
2019-03-09T22:20:13.863Z,9.33
2019-03-09T22:25:18.838Z,8.73
2019-03-09T22:30:23.880Z,12.97
2019-03-09T22:35:28.583Z,10.83
2019-03-09T22:40:33.263Z,12.70
2019-03-09T22:45:38.303Z,11.93
2019-03-09T22:50:43.218Z,15.70
2019-03-09T22:55:48.040Z,12.90
2019-03-09T23:00:53.191Z,10.87
2019-03-09T23:05:57.723Z,12.50
2019-03-09T23:11:02.483Z,17.83
2019-03-09T23:16:07.178Z,15.10
2019-03-09T23:21:11.735Z,15.03
2019-03-09T23:26:16.717Z,21.73
2019-03-09T23:31:21.474Z,13.97
2019-03-09T23:36:26.160Z,12.10
2019-03-09T23:41:30.923Z,13.73
2019-03-09T23:46:35.562Z,17.87
2019-03-09T23:51:40.231Z,20.83
2019-03-09T23:56:44.862Z,12.33
